sensor_id;sensor_type;location;lat;lon;timestamp;P1;durP1;ratioP1;P2;durP2;ratioP2
27758;SDS011;15148;48.972;12.794;2023-02-15T00:00:40;12.57;;;8.50;;
27758;SDS011;15148;48.972;12.794;2023-02-15T00:05:42;16.27;;;9.80;;
27758;SDS011;15148;48.972;12.794;2023-02-15T00:10:43;11.25;;;7.90;;
27758;SDS011;15148;48.972;12.794;2023-02-15T00:15:45;12.32;;;8.88;;
27758;SDS011;15148;48.972;12.794;2023-02-15T00:20:47;9.80;;;7.45;;
27758;SDS011;15148;48.972;12.794;2023-02-15T00:25:49;12.77;;;8.27;;
27758;SDS011;15148;48.972;12.794;2023-02-15T00:30:51;12.55;;;8.02;;
27758;SDS011;15148;48.972;12.794;2023-02-15T00:35:59;9.82;;;7.57;;
27758;SDS011;15148;48.972;12.794;2023-02-15T00:41:03;13.88;;;9.20;;
27758;SDS011;15148;48.972;12.794;2023-02-15T00:46:06;12.95;;;7.95;;
27758;SDS011;15148;48.972;12.794;2023-02-15T00:51:08;11.52;;;8.88;;
27758;SDS011;15148;48.972;12.794;2023-02-15T00:56:10;11.95;;;8.00;;
27758;SDS011;15148;48.972;12.794;2023-02-15T01:01:14;13.90;;;8.60;;
27758;SDS011;15148;48.972;12.794;2023-02-15T01:06:18;10.00;;;7.15;;
27758;SDS011;15148;48.972;12.794;2023-02-15T01:11:21;12.18;;;8.00;;
27758;SDS011;15148;48.972;12.794;2023-02-15T01:16:27;11.85;;;8.05;;
27758;SDS011;15148;48.972;12.794;2023-02-15T01:21:30;11.50;;;8.38;;
27758;SDS011;15148;48.972;12.794;2023-02-15T01:26:32;13.45;;;9.85;;
27758;SDS011;15148;48.972;12.794;2023-02-15T01:31:33;13.70;;;9.65;;
27758;SDS011;15148;48.972;12.794;2023-02-15T01:36:35;14.43;;;8.98;;
27758;SDS011;15148;48.972;12.794;2023-02-15T01:41:37;13.52;;;9.15;;
27758;SDS011;15148;48.972;12.794;2023-02-15T01:46:44;16.70;;;9.20;;
27758;SDS011;15148;48.972;12.794;2023-02-15T01:51:53;16.80;;;9.27;;
27758;SDS011;15148;48.972;12.794;2023-02-15T01:57:00;13.20;;;9.00;;
27758;SDS011;15148;48.972;12.794;2023-02-15T02:02:06;12.63;;;8.82;;
27758;SDS011;15148;48.972;12.794;2023-02-15T02:07:10;12.20;;;8.30;;
27758;SDS011;15148;48.972;12.794;2023-02-15T02:12:16;9.50;;;7.03;;
27758;SDS011;15148;48.972;12.794;2023-02-15T02:33:37;9.98;;;7.30;;
27758;SDS011;15148;48.972;12.794;2023-02-15T02:49:33;12.43;;;8.48;;
27758;SDS011;15148;48.972;12.794;2023-02-15T02:54:37;22.08;;;8.68;;
27758;SDS011;15148;48.972;12.794;2023-02-15T02:59:41;14.32;;;8.40;;
27758;SDS011;15148;48.972;12.794;2023-02-15T03:04:47;12.45;;;8.68;;
27758;SDS011;15148;48.972;12.794;2023-02-15T03:10:00;11.45;;;7.90;;
27758;SDS011;15148;48.972;12.794;2023-02-15T03:15:10;11.57;;;7.93;;
27758;SDS011;15148;48.972;12.794;2023-02-15T03:20:21;13.13;;;8.45;;
27758;SDS011;15148;48.972;12.794;2023-02-15T03:25:36;12.77;;;8.77;;
27758;SDS011;15148;48.972;12.794;2023-02-15T03:30:42;13.15;;;8.77;;
27758;SDS011;15148;48.972;12.794;2023-02-15T03:35:57;12.90;;;9.17;;
27758;SDS011;15148;48.972;12.794;2023-02-15T03:41:13;13.57;;;8.65;;
27758;SDS011;15148;48.972;12.794;2023-02-15T03:46:23;11.65;;;8.27;;
27758;SDS011;15148;48.972;12.794;2023-02-15T03:51:40;15.15;;;8.55;;
27758;SDS011;15148;48.972;12.794;2023-02-15T03:56:44;14.10;;;9.20;;
27758;SDS011;15148;48.972;12.794;2023-02-15T04:02:18;13.40;;;8.60;;
27758;SDS011;15148;48.972;12.794;2023-02-15T04:07:24;13.55;;;7.60;;
27758;SDS011;15148;48.972;12.794;2023-02-15T04:12:25;11.07;;;8.48;;
27758;SDS011;15148;48.972;12.794;2023-02-15T04:17:27;11.52;;;7.82;;
27758;SDS011;15148;48.972;12.794;2023-02-15T04:22:29;12.63;;;8.43;;
27758;SDS011;15148;48.972;12.794;2023-02-15T04:27:51;11.43;;;7.85;;
27758;SDS011;15148;48.972;12.794;2023-02-15T04:32:54;12.43;;;8.30;;
27758;SDS011;15148;48.972;12.794;2023-02-15T04:37:58;12.98;;;7.88;;
27758;SDS011;15148;48.972;12.794;2023-02-15T04:43:00;11.75;;;7.70;;
27758;SDS011;15148;48.972;12.794;2023-02-15T04:48:02;12.80;;;8.43;;
27758;SDS011;15148;48.972;12.794;2023-02-15T04:53:04;12.30;;;8.05;;
27758;SDS011;15148;48.972;12.794;2023-02-15T04:58:05;15.32;;;9.93;;
27758;SDS011;15148;48.972;12.794;2023-02-15T05:03:07;10.57;;;7.78;;
27758;SDS011;15148;48.972;12.794;2023-02-15T05:08:09;12.75;;;8.07;;
27758;SDS011;15148;48.972;12.794;2023-02-15T05:13:11;13.70;;;8.65;;
27758;SDS011;15148;48.972;12.794;2023-02-15T05:18:13;10.85;;;8.18;;
27758;SDS011;15148;48.972;12.794;2023-02-15T05:23:15;11.68;;;8.00;;
27758;SDS011;15148;48.972;12.794;2023-02-15T05:28:17;18.80;;;15.35;;
27758;SDS011;15148;48.972;12.794;2023-02-15T05:33:22;32.70;;;24.80;;
27758;SDS011;15148;48.972;12.794;2023-02-15T05:38:24;17.48;;;9.45;;
27758;SDS011;15148;48.972;12.794;2023-02-15T05:43:25;13.38;;;8.20;;
27758;SDS011;15148;48.972;12.794;2023-02-15T05:48:27;14.63;;;9.57;;
27758;SDS011;15148;48.972;12.794;2023-02-15T05:53:30;14.93;;;8.65;;
27758;SDS011;15148;48.972;12.794;2023-02-15T05:58:34;14.43;;;8.90;;
27758;SDS011;15148;48.972;12.794;2023-02-15T06:03:38;15.80;;;10.70;;
27758;SDS011;15148;48.972;12.794;2023-02-15T06:08:40;13.32;;;8.98;;
27758;SDS011;15148;48.972;12.794;2023-02-15T06:13:42;18.42;;;10.85;;
27758;SDS011;15148;48.972;12.794;2023-02-15T06:18:44;14.05;;;9.77;;
27758;SDS011;15148;48.972;12.794;2023-02-15T06:23:46;15.88;;;10.52;;
27758;SDS011;15148;48.972;12.794;2023-02-15T06:28:48;16.65;;;10.55;;
27758;SDS011;15148;48.972;12.794;2023-02-15T06:33:50;16.00;;;9.80;;
27758;SDS011;15148;48.972;12.794;2023-02-15T06:38:51;14.55;;;9.52;;
27758;SDS011;15148;48.972;12.794;2023-02-15T06:43:53;15.90;;;8.93;;
27758;SDS011;15148;48.972;12.794;2023-02-15T06:48:55;15.63;;;9.90;;
27758;SDS011;15148;48.972;12.794;2023-02-15T06:53:57;16.15;;;10.10;;
27758;SDS011;15148;48.972;12.794;2023-02-15T06:58:59;15.48;;;9.82;;
27758;SDS011;15148;48.972;12.794;2023-02-15T07:04:01;16.33;;;10.52;;
27758;SDS011;15148;48.972;12.794;2023-02-15T07:09:03;14.57;;;8.60;;
27758;SDS011;15148;48.972;12.794;2023-02-15T07:14:05;13.80;;;9.02;;
27758;SDS011;15148;48.972;12.794;2023-02-15T07:19:07;14.98;;;10.35;;
27758;SDS011;15148;48.972;12.794;2023-02-15T07:24:09;12.20;;;8.15;;
27758;SDS011;15148;48.972;12.794;2023-02-15T07:29:10;12.50;;;7.95;;
27758;SDS011;15148;48.972;12.794;2023-02-15T07:34:12;35.65;;;16.65;;
27758;SDS011;15148;48.972;12.794;2023-02-15T07:39:14;16.67;;;9.23;;
27758;SDS011;15148;48.972;12.794;2023-02-15T07:44:16;15.70;;;10.25;;
27758;SDS011;15148;48.972;12.794;2023-02-15T07:49:17;25.45;;;15.38;;
27758;SDS011;15148;48.972;12.794;2023-02-15T07:54:19;18.52;;;12.32;;
27758;SDS011;15148;48.972;12.794;2023-02-15T07:59:21;14.07;;;8.30;;
27758;SDS011;15148;48.972;12.794;2023-02-15T08:04:23;13.65;;;9.50;;
27758;SDS011;15148;48.972;12.794;2023-02-15T08:09:25;13.55;;;9.70;;
27758;SDS011;15148;48.972;12.794;2023-02-15T08:14:27;13.45;;;9.63;;
27758;SDS011;15148;48.972;12.794;2023-02-15T08:19:29;13.85;;;8.75;;
27758;SDS011;15148;48.972;12.794;2023-02-15T08:24:34;14.98;;;9.48;;
27758;SDS011;15148;48.972;12.794;2023-02-15T08:29:40;14.57;;;9.40;;
27758;SDS011;15148;48.972;12.794;2023-02-15T08:34:43;12.27;;;8.73;;
27758;SDS011;15148;48.972;12.794;2023-02-15T08:39:45;15.00;;;10.20;;
27758;SDS011;15148;48.972;12.794;2023-02-15T08:44:47;18.17;;;12.63;;
27758;SDS011;15148;48.972;12.794;2023-02-15T08:49:51;17.33;;;11.18;;
27758;SDS011;15148;48.972;12.794;2023-02-15T08:54:53;15.98;;;10.00;;
27758;SDS011;15148;48.972;12.794;2023-02-15T08:59:56;14.75;;;9.82;;
27758;SDS011;15148;48.972;12.794;2023-02-15T09:04:58;16.75;;;10.20;;
27758;SDS011;15148;48.972;12.794;2023-02-15T09:09:59;16.10;;;10.40;;
27758;SDS011;15148;48.972;12.794;2023-02-15T09:15:01;14.55;;;10.00;;
27758;SDS011;15148;48.972;12.794;2023-02-15T09:20:03;14.43;;;10.52;;
27758;SDS011;15148;48.972;12.794;2023-02-15T09:25:06;16.10;;;10.80;;
27758;SDS011;15148;48.972;12.794;2023-02-15T09:30:08;15.23;;;10.50;;
27758;SDS011;15148;48.972;12.794;2023-02-15T09:35:10;31.77;;;19.35;;
27758;SDS011;15148;48.972;12.794;2023-02-15T09:40:13;19.17;;;12.45;;
27758;SDS011;15148;48.972;12.794;2023-02-15T09:45:26;15.00;;;10.57;;
27758;SDS011;15148;48.972;12.794;2023-02-15T09:50:39;17.92;;;12.80;;
27758;SDS011;15148;48.972;12.794;2023-02-15T09:56:14;18.40;;;12.10;;
27758;SDS011;15148;48.972;12.794;2023-02-15T10:06:53;21.35;;;13.38;;
27758;SDS011;15148;48.972;12.794;2023-02-15T10:29:06;26.25;;;17.42;;
27758;SDS011;15148;48.972;12.794;2023-02-15T10:34:17;18.63;;;12.80;;
27758;SDS011;15148;48.972;12.794;2023-02-15T10:50:00;26.85;;;18.33;;
27758;SDS011;15148;48.972;12.794;2023-02-15T11:00:23;117.05;;;70.78;;
27758;SDS011;15148;48.972;12.794;2023-02-15T11:05:47;55.10;;;30.95;;
27758;SDS011;15148;48.972;12.794;2023-02-15T11:11:03;25.92;;;16.38;;
27758;SDS011;15148;48.972;12.794;2023-02-15T11:21:29;27.05;;;16.73;;
27758;SDS011;15148;48.972;12.794;2023-02-15T11:26:46;31.27;;;18.10;;
27758;SDS011;15148;48.972;12.794;2023-02-15T11:31:53;28.42;;;17.75;;
27758;SDS011;15148;48.972;12.794;2023-02-15T11:36:59;22.33;;;15.27;;
27758;SDS011;15148;48.972;12.794;2023-02-15T11:42:12;31.45;;;20.73;;
27758;SDS011;15148;48.972;12.794;2023-02-15T11:47:16;26.02;;;17.40;;
27758;SDS011;15148;48.972;12.794;2023-02-15T11:52:18;28.05;;;18.08;;
27758;SDS011;15148;48.972;12.794;2023-02-15T12:02:46;39.05;;;24.33;;
27758;SDS011;15148;48.972;12.794;2023-02-15T12:07:54;31.05;;;19.77;;
27758;SDS011;15148;48.972;12.794;2023-02-15T12:13:12;34.88;;;20.25;;
27758;SDS011;15148;48.972;12.794;2023-02-15T12:23:41;23.52;;;15.40;;
27758;SDS011;15148;48.972;12.794;2023-02-15T12:28:49;26.92;;;17.20;;
27758;SDS011;15148;48.972;12.794;2023-02-15T12:33:54;28.52;;;17.85;;
27758;SDS011;15148;48.972;12.794;2023-02-15T12:39:03;28.70;;;17.17;;
27758;SDS011;15148;48.972;12.794;2023-02-15T12:49:20;23.63;;;16.50;;
27758;SDS011;15148;48.972;12.794;2023-02-15T12:54:26;34.28;;;21.98;;
27758;SDS011;15148;48.972;12.794;2023-02-15T12:59:47;27.63;;;17.70;;
27758;SDS011;15148;48.972;12.794;2023-02-15T13:04:49;26.40;;;17.50;;
27758;SDS011;15148;48.972;12.794;2023-02-15T13:09:52;23.10;;;15.80;;
27758;SDS011;15148;48.972;12.794;2023-02-15T13:14:54;26.33;;;16.83;;
27758;SDS011;15148;48.972;12.794;2023-02-15T13:19:58;27.80;;;18.33;;
27758;SDS011;15148;48.972;12.794;2023-02-15T13:35:28;26.50;;;16.95;;
27758;SDS011;15148;48.972;12.794;2023-02-15T13:40:46;27.35;;;17.40;;
27758;SDS011;15148;48.972;12.794;2023-02-15T13:51:16;26.23;;;17.23;;
27758;SDS011;15148;48.972;12.794;2023-02-15T13:56:30;29.60;;;18.60;;
27758;SDS011;15148;48.972;12.794;2023-02-15T14:01:58;30.90;;;18.83;;
27758;SDS011;15148;48.972;12.794;2023-02-15T14:07:33;25.65;;;16.95;;
27758;SDS011;15148;48.972;12.794;2023-02-15T14:34:21;29.45;;;18.60;;
27758;SDS011;15148;48.972;12.794;2023-02-15T14:39:41;28.70;;;18.98;;
27758;SDS011;15148;48.972;12.794;2023-02-15T14:45:31;24.90;;;17.15;;
27758;SDS011;15148;48.972;12.794;2023-02-15T14:55:38;22.90;;;15.38;;
27758;SDS011;15148;48.972;12.794;2023-02-15T15:00:40;22.42;;;15.52;;
27758;SDS011;15148;48.972;12.794;2023-02-15T15:05:47;26.50;;;17.90;;
27758;SDS011;15148;48.972;12.794;2023-02-15T15:10:52;25.60;;;17.02;;
27758;SDS011;15148;48.972;12.794;2023-02-15T15:15:54;24.48;;;15.80;;
27758;SDS011;15148;48.972;12.794;2023-02-15T15:20:56;28.95;;;18.13;;
27758;SDS011;15148;48.972;12.794;2023-02-15T15:26:44;28.75;;;18.75;;
27758;SDS011;15148;48.972;12.794;2023-02-15T15:31:36;32.90;;;19.88;;
27758;SDS011;15148;48.972;12.794;2023-02-15T15:52:59;27.70;;;17.77;;
27758;SDS011;15148;48.972;12.794;2023-02-15T15:58:03;26.65;;;16.42;;
27758;SDS011;15148;48.972;12.794;2023-02-15T16:03:47;27.02;;;18.52;;
27758;SDS011;15148;48.972;12.794;2023-02-15T16:08:37;26.30;;;17.15;;
27758;SDS011;15148;48.972;12.794;2023-02-15T16:13:40;23.92;;;16.00;;
27758;SDS011;15148;48.972;12.794;2023-02-15T16:18:43;26.10;;;17.83;;
27758;SDS011;15148;48.972;12.794;2023-02-15T16:29:12;32.07;;;19.73;;
27758;SDS011;15148;48.972;12.794;2023-02-15T16:34:16;39.28;;;20.90;;
27758;SDS011;15148;48.972;12.794;2023-02-15T16:39:19;27.38;;;18.55;;
27758;SDS011;15148;48.972;12.794;2023-02-15T16:44:21;25.35;;;17.77;;
27758;SDS011;15148;48.972;12.794;2023-02-15T16:49:24;25.77;;;17.40;;
27758;SDS011;15148;48.972;12.794;2023-02-15T16:54:29;36.63;;;25.17;;
27758;SDS011;15148;48.972;12.794;2023-02-15T16:59:35;29.30;;;19.33;;
27758;SDS011;15148;48.972;12.794;2023-02-15T17:04:52;28.63;;;18.98;;
27758;SDS011;15148;48.972;12.794;2023-02-15T17:10:33;27.58;;;17.88;;
27758;SDS011;15148;48.972;12.794;2023-02-15T17:15:41;27.70;;;17.20;;
27758;SDS011;15148;48.972;12.794;2023-02-15T17:20:45;27.55;;;18.85;;
27758;SDS011;15148;48.972;12.794;2023-02-15T17:25:48;29.67;;;19.38;;
27758;SDS011;15148;48.972;12.794;2023-02-15T17:30:56;37.75;;;21.00;;
27758;SDS011;15148;48.972;12.794;2023-02-15T17:36:07;31.10;;;18.83;;
27758;SDS011;15148;48.972;12.794;2023-02-15T17:41:12;29.60;;;18.50;;
27758;SDS011;15148;48.972;12.794;2023-02-15T17:46:14;33.10;;;19.60;;
27758;SDS011;15148;48.972;12.794;2023-02-15T17:51:19;33.08;;;20.02;;
27758;SDS011;15148;48.972;12.794;2023-02-15T17:56:21;40.35;;;23.23;;
27758;SDS011;15148;48.972;12.794;2023-02-15T18:01:23;34.15;;;20.60;;
27758;SDS011;15148;48.972;12.794;2023-02-15T18:06:44;32.80;;;18.95;;
27758;SDS011;15148;48.972;12.794;2023-02-15T18:17:34;31.85;;;20.27;;
27758;SDS011;15148;48.972;12.794;2023-02-15T18:22:40;39.97;;;22.10;;
27758;SDS011;15148;48.972;12.794;2023-02-15T18:27:42;33.40;;;20.08;;
27758;SDS011;15148;48.972;12.794;2023-02-15T18:32:45;40.10;;;24.08;;
27758;SDS011;15148;48.972;12.794;2023-02-15T18:37:48;41.05;;;23.40;;
27758;SDS011;15148;48.972;12.794;2023-02-15T18:42:52;36.33;;;21.35;;
27758;SDS011;15148;48.972;12.794;2023-02-15T18:47:57;39.70;;;21.30;;
27758;SDS011;15148;48.972;12.794;2023-02-15T18:52:59;39.17;;;22.10;;
27758;SDS011;15148;48.972;12.794;2023-02-15T18:58:03;42.67;;;24.77;;
27758;SDS011;15148;48.972;12.794;2023-02-15T19:03:05;46.88;;;29.05;;
27758;SDS011;15148;48.972;12.794;2023-02-15T19:08:11;36.80;;;22.13;;
27758;SDS011;15148;48.972;12.794;2023-02-15T19:13:24;34.53;;;20.25;;
27758;SDS011;15148;48.972;12.794;2023-02-15T19:18:26;46.78;;;22.77;;
27758;SDS011;15148;48.972;12.794;2023-02-15T19:23:28;30.95;;;19.70;;
27758;SDS011;15148;48.972;12.794;2023-02-15T19:28:32;65.55;;;34.58;;
27758;SDS011;15148;48.972;12.794;2023-02-15T19:33:34;41.63;;;24.00;;
27758;SDS011;15148;48.972;12.794;2023-02-15T19:38:36;36.83;;;21.63;;
27758;SDS011;15148;48.972;12.794;2023-02-15T19:43:38;34.17;;;21.92;;
27758;SDS011;15148;48.972;12.794;2023-02-15T19:48:40;68.47;;;37.53;;
27758;SDS011;15148;48.972;12.794;2023-02-15T19:53:42;31.98;;;19.70;;
27758;SDS011;15148;48.972;12.794;2023-02-15T19:58:45;32.78;;;19.30;;
27758;SDS011;15148;48.972;12.794;2023-02-15T20:03:50;31.05;;;18.45;;
27758;SDS011;15148;48.972;12.794;2023-02-15T20:08:53;32.85;;;20.13;;
27758;SDS011;15148;48.972;12.794;2023-02-15T20:13:55;39.03;;;23.58;;
27758;SDS011;15148;48.972;12.794;2023-02-15T20:18:57;35.55;;;22.48;;
27758;SDS011;15148;48.972;12.794;2023-02-15T20:23:59;32.55;;;19.88;;
27758;SDS011;15148;48.972;12.794;2023-02-15T20:29:02;33.63;;;20.38;;
27758;SDS011;15148;48.972;12.794;2023-02-15T20:34:05;35.28;;;21.48;;
27758;SDS011;15148;48.972;12.794;2023-02-15T20:39:15;35.40;;;22.20;;
27758;SDS011;15148;48.972;12.794;2023-02-15T20:44:21;35.08;;;21.35;;
27758;SDS011;15148;48.972;12.794;2023-02-15T20:49:28;44.20;;;20.88;;
27758;SDS011;15148;48.972;12.794;2023-02-15T20:54:32;35.67;;;21.83;;
27758;SDS011;15148;48.972;12.794;2023-02-15T20:59:36;32.33;;;20.55;;
27758;SDS011;15148;48.972;12.794;2023-02-15T21:04:38;43.58;;;23.35;;
27758;SDS011;15148;48.972;12.794;2023-02-15T21:09:40;35.72;;;20.42;;
27758;SDS011;15148;48.972;12.794;2023-02-15T21:14:42;34.10;;;20.20;;
27758;SDS011;15148;48.972;12.794;2023-02-15T21:19:44;31.25;;;19.80;;
27758;SDS011;15148;48.972;12.794;2023-02-15T21:24:49;34.97;;;20.77;;
27758;SDS011;15148;48.972;12.794;2023-02-15T21:29:53;31.98;;;18.48;;
27758;SDS011;15148;48.972;12.794;2023-02-15T21:34:55;32.50;;;19.85;;
27758;SDS011;15148;48.972;12.794;2023-02-15T21:39:57;31.75;;;19.73;;
27758;SDS011;15148;48.972;12.794;2023-02-15T21:44:59;26.77;;;18.13;;
27758;SDS011;15148;48.972;12.794;2023-02-15T21:50:20;30.65;;;18.70;;
27758;SDS011;15148;48.972;12.794;2023-02-15T21:55:42;30.05;;;19.02;;
27758;SDS011;15148;48.972;12.794;2023-02-15T22:00:44;29.10;;;18.35;;
27758;SDS011;15148;48.972;12.794;2023-02-15T22:05:47;28.55;;;17.77;;
27758;SDS011;15148;48.972;12.794;2023-02-15T22:10:49;29.17;;;17.55;;
27758;SDS011;15148;48.972;12.794;2023-02-15T22:15:53;29.15;;;17.38;;
27758;SDS011;15148;48.972;12.794;2023-02-15T22:20:56;26.98;;;17.45;;
27758;SDS011;15148;48.972;12.794;2023-02-15T22:26:20;26.65;;;17.13;;
27758;SDS011;15148;48.972;12.794;2023-02-15T22:31:24;31.52;;;18.85;;
27758;SDS011;15148;48.972;12.794;2023-02-15T22:36:27;31.38;;;17.45;;
27758;SDS011;15148;48.972;12.794;2023-02-15T22:41:30;32.53;;;18.33;;
27758;SDS011;15148;48.972;12.794;2023-02-15T22:46:32;35.10;;;19.15;;
27758;SDS011;15148;48.972;12.794;2023-02-15T22:51:34;33.95;;;19.40;;
27758;SDS011;15148;48.972;12.794;2023-02-15T22:56:36;27.17;;;16.92;;
27758;SDS011;15148;48.972;12.794;2023-02-15T23:01:40;27.63;;;17.83;;
27758;SDS011;15148;48.972;12.794;2023-02-15T23:06:42;30.70;;;18.02;;
27758;SDS011;15148;48.972;12.794;2023-02-15T23:11:44;28.52;;;17.25;;
27758;SDS011;15148;48.972;12.794;2023-02-15T23:16:46;28.95;;;17.17;;
27758;SDS011;15148;48.972;12.794;2023-02-15T23:21:48;27.60;;;16.10;;
27758;SDS011;15148;48.972;12.794;2023-02-15T23:26:50;28.15;;;17.88;;
27758;SDS011;15148;48.972;12.794;2023-02-15T23:31:52;27.27;;;17.13;;
27758;SDS011;15148;48.972;12.794;2023-02-15T23:36:55;31.30;;;18.05;;
27758;SDS011;15148;48.972;12.794;2023-02-15T23:41:57;32.95;;;19.20;;
27758;SDS011;15148;48.972;12.794;2023-02-15T23:47:00;38.45;;;20.90;;
27758;SDS011;15148;48.972;12.794;2023-02-15T23:52:04;40.58;;;19.25;;
27758;SDS011;15148;48.972;12.794;2023-02-15T23:57:10;34.03;;;19.48;;
